Photometre #852[NE_1.6_Dp] Portglenone_MO AOT

File : 20200923_852.hum

23/09/2020,07:16:52,TEMP=7.7,BA=5.52,STAT.A,ExtBa=12.60
23/09/2020,07:18:25,TEMP=8.2,BA=5.52,STAT.b=10.0
23/09/2020,07:21:24,TEMP=8.2,BA=5.52,STAT.A,ExtBa=12.50
23/09/2020,07:22:57,TEMP=8.6,BA=5.52,STAT.b=10.0
23/09/2020,07:27:54,TEMP=8.3,BA=5.52,STAT.A,ExtBa=12.50
23/09/2020,07:29:26,TEMP=8.6,BA=5.52,STAT.b=10.0
23/09/2020,07:33:03,TEMP=8.3,BA=5.40,STAT.A,ExtBa=12.50
23/09/2020,07:34:35,TEMP=8.6,BA=5.40,STAT.b=10.0
23/09/2020,07:40:44,TEMP=8.2,BA=5.52,STAT.A,ExtBa=12.50
23/09/2020,07:42:16,TEMP=8.4,BA=5.52,STAT.b=10.0
23/09/2020,07:50:15,TEMP=8.1,BA=5.48,STAT.A,ExtBa=12.50
23/09/2020,07:51:47,TEMP=8.4,BA=5.48,STAT.b=10.0
23/09/2020,08:02:24,TEMP=8.3,BA=5.52,STAT.B,ExtBa=12.50
23/09/2020,08:03:56,TEMP=8.6,BA=5.52,STAT.b=10.0
23/09/2020,08:08:15,TEMP=8.6,BA=5.52,STAT.A,ExtBa=12.50
23/09/2020,08:09:47,TEMP=9.0,BA=5.52,STAT.b=10.0
23/09/2020,08:14:51,TEMP=8.9,BA=5.52,STAT.A,ExtBa=12.50
23/09/2020,08:16:23,TEMP=9.3,BA=5.52,STAT.b=10.0
23/09/2020,08:22:22,TEMP=9.3,BA=5.52,STAT.A,ExtBa=12.60
23/09/2020,08:23:54,TEMP=9.6,BA=5.52,STAT.b=10.0
23/09/2020,08:30:59,TEMP=9.6,BA=5.52,STAT.A,ExtBa=12.60
23/09/2020,08:32:31,TEMP=10.0,BA=5.52,STAT.b=10.0
23/09/2020,08:41:02,TEMP=9.9,BA=5.52,STAT.C,ExtBa=12.80
23/09/2020,08:42:35,TEMP=10.2,BA=5.52,STAT.b=10.0
23/09/2020,08:52:56,TEMP=11.2,BA=5.56,STAT.A,ExtBa=13.30
23/09/2020,08:54:28,TEMP=11.7,BA=5.56,STAT.b=10.0
23/09/2020,09:07:17,TEMP=12.2,BA=5.56,STAT.A,ExtBa=13.30
23/09/2020,09:08:49,TEMP=12.5,BA=5.56,STAT.b=11.0
23/09/2020,09:18:46,TEMP=12.2,BA=5.52,STAT.F,ExtBa=13.30
23/09/2020,09:20:18,TEMP=12.5,BA=5.52,STAT.b=11.0
23/09/2020,09:33:44,TEMP=12.3,BA=5.52,STAT.D,ExtBa=13.30
23/09/2020,09:35:16,TEMP=12.6,BA=5.52,STAT.b=11.0
23/09/2020,09:48:44,TEMP=13.5,BA=5.56,STAT.D,ExtBa=13.90
23/09/2020,09:50:16,TEMP=14.0,BA=5.52,STAT.b=11.0
23/09/2020,10:03:44,TEMP=14.4,BA=5.56,STAT.D,ExtBa=13.90
23/09/2020,10:05:16,TEMP=14.8,BA=5.56,STAT.b=11.0
23/09/2020,10:18:46,TEMP=14.9,BA=5.56,STAT.F,ExtBa=14.10
23/09/2020,10:20:18,TEMP=15.2,BA=5.52,STAT.b=11.0
23/09/2020,10:33:45,TEMP=15.7,BA=5.56,STAT.D,ExtBa=14.10
23/09/2020,10:35:17,TEMP=16.1,BA=5.56,STAT.b=11.0
23/09/2020,10:48:45,TEMP=14.9,BA=5.52,STAT.D,ExtBa=13.60
23/09/2020,10:50:16,TEMP=15.0,BA=5.44,STAT.b=11.0
23/09/2020,11:03:45,TEMP=13.3,BA=5.52,STAT.D,ExtBa=13.40
23/09/2020,11:05:16,TEMP=13.6,BA=5.52,STAT.b=11.0
23/09/2020,11:18:46,TEMP=12.8,BA=5.52,STAT.F,ExtBa=13.50
23/09/2020,11:20:17,TEMP=13.2,BA=5.52,STAT.b=11.0
23/09/2020,11:33:45,TEMP=14.7,BA=5.56,STAT.D,ExtBa=13.90
23/09/2020,11:35:16,TEMP=15.1,BA=5.56,STAT.b=11.0
23/09/2020,11:48:45,TEMP=13.7,BA=5.52,STAT.D,ExtBa=13.70
23/09/2020,11:50:16,TEMP=13.7,BA=5.52,STAT.b=11.0
23/09/2020,12:03:45,TEMP=9.9,BA=5.52,STAT.D,ExtBa=13.50
23/09/2020,12:05:16,TEMP=10.0,BA=5.52,STAT.b=11.0
23/09/2020,12:18:47,TEMP=8.6,BA=5.52,STAT.F,ExtBa=13.30
23/09/2020,12:20:17,TEMP=8.9,BA=5.52,STAT.b=11.0
23/09/2020,12:33:45,TEMP=9.8,BA=5.56,STAT.D,ExtBa=14.20
23/09/2020,12:35:15,TEMP=10.4,BA=5.56,STAT.b=10.0
23/09/2020,12:48:45,TEMP=12.1,BA=5.56,STAT.D,ExtBa=14.20
23/09/2020,12:50:16,TEMP=12.6,BA=5.52,STAT.b=10.0
23/09/2020,13:03:45,TEMP=14.5,BA=5.56,STAT.D,ExtBa=14.20
23/09/2020,13:05:17,TEMP=15.1,BA=5.56,STAT.b=11.0
23/09/2020,13:18:47,TEMP=15.2,BA=5.56,STAT.F,ExtBa=14.00
23/09/2020,13:20:18,TEMP=15.5,BA=5.52,STAT.b=11.0
23/09/2020,13:33:45,TEMP=15.2,BA=5.52,STAT.D,ExtBa=13.90
23/09/2020,13:35:17,TEMP=15.5,BA=5.52,STAT.b=11.0
23/09/2020,13:48:45,TEMP=15.8,BA=5.52,STAT.D,ExtBa=14.20
23/09/2020,13:50:17,TEMP=16.3,BA=5.52,STAT.b=11.0
23/09/2020,14:03:46,TEMP=17.3,BA=5.52,STAT.D,ExtBa=14.20
23/09/2020,14:05:17,TEMP=17.7,BA=5.52,STAT.b=11.0
23/09/2020,14:18:47,TEMP=18.6,BA=5.52,STAT.F,ExtBa=14.10
23/09/2020,14:20:19,TEMP=19.0,BA=5.52,STAT.b=11.0
23/09/2020,14:33:46,TEMP=18.1,BA=5.52,STAT.D,ExtBa=13.80
23/09/2020,14:35:18,TEMP=18.2,BA=5.52,STAT.b=11.0
23/09/2020,14:48:45,TEMP=15.4,BA=5.52,STAT.D,ExtBa=13.60
23/09/2020,14:50:17,TEMP=15.6,BA=5.52,STAT.b=11.0
23/09/2020,15:03:45,TEMP=14.5,BA=5.52,STAT.D,ExtBa=13.80
23/09/2020,15:05:17,TEMP=14.9,BA=5.52,STAT.b=11.0
23/09/2020,15:18:46,TEMP=14.9,BA=5.52,STAT.F,ExtBa=13.70
23/09/2020,15:20:19,TEMP=15.1,BA=5.52,STAT.b=11.0
23/09/2020,15:30:15,TEMP=14.1,BA=5.44,STAT.A,ExtBa=13.50
23/09/2020,15:31:48,TEMP=14.3,BA=5.44,STAT.b=11.0
23/09/2020,15:44:36,TEMP=13.3,BA=5.52,STAT.A,ExtBa=13.30
23/09/2020,15:46:08,TEMP=13.6,BA=5.52,STAT.b=11.0
23/09/2020,15:56:29,TEMP=12.9,BA=5.52,STAT.C,ExtBa=13.20
23/09/2020,15:58:01,TEMP=13.2,BA=5.52,STAT.b=11.0
23/09/2020,16:06:32,TEMP=12.4,BA=5.52,STAT.A,ExtBa=13.10
23/09/2020,16:08:04,TEMP=12.7,BA=5.52,STAT.b=11.0
23/09/2020,16:15:09,TEMP=12.2,BA=5.52,STAT.A,ExtBa=13.00
23/09/2020,16:16:41,TEMP=12.4,BA=5.52,STAT.b=11.0
23/09/2020,16:22:40,TEMP=12.3,BA=5.52,STAT.A,ExtBa=13.00
23/09/2020,16:24:12,TEMP=12.6,BA=5.52,STAT.b=11.0
23/09/2020,16:29:15,TEMP=12.3,BA=5.52,STAT.A,ExtBa=12.90
23/09/2020,16:30:48,TEMP=12.5,BA=5.40,STAT.b=11.0
23/09/2020,16:35:06,TEMP=12.1,BA=5.40,STAT.B,ExtBa=12.80
23/09/2020,16:36:39,TEMP=12.4,BA=5.40,STAT.b=11.0
23/09/2020,16:47:15,TEMP=11.7,BA=5.52,STAT.A,ExtBa=12.80
23/09/2020,16:48:48,TEMP=12.0,BA=5.52,STAT.b=11.0
23/09/2020,16:56:46,TEMP=11.6,BA=5.48,STAT.A,ExtBa=12.70
23/09/2020,16:58:19,TEMP=11.8,BA=5.48,STAT.b=11.0
23/09/2020,17:04:27,TEMP=11.4,BA=5.48,STAT.A,ExtBa=12.70
23/09/2020,17:06:00,TEMP=11.7,BA=5.48,STAT.b=11.0
23/09/2020,17:10:47,TEMP=11.3,BA=5.48,STAT.A,ExtBa=12.70
23/09/2020,17:12:19,TEMP=11.6,BA=5.48,STAT.b=11.0
23/09/2020,17:16:06,TEMP=11.2,BA=5.48,STAT.A,ExtBa=12.70
23/09/2020,17:17:38,TEMP=11.4,BA=5.48,STAT.b=11.0
23/09/2020,17:20:38,TEMP=11.1,BA=5.44,STAT.A,ExtBa=12.60
23/09/2020,17:22:10,TEMP=11.3,BA=5.44,STAT.b=11.0